.
WxDataArchive / Data Records for 2010-05-16
2010-05-15 May 2010 2010-05-17

Data Records for Sunday, 16 May 2010

Time	Temp	Chill	HIndex	Humid	Dewpt	 Wind 	HiWind	WindDir	Rain 	Barom 
-----	----	-----	------	-----	-----	------	------	-------	-----	----- 
00:00	57.2	57.2	57.2	90	54.3	0	0	---	0.00	30.217 
00:05	57.2	57.2	57.2	90	54.3	0	0	---	0.00	30.217 
00:10	57.2	57.2	57.2	90	54.3	0	0	---	0.00	30.217 
00:15	57.0	57.0	57.0	90	54.1	0	0	---	0.00	30.217 
00:20	57.0	57.0	57.0	90	54.1	0	0	---	0.00	30.217 
00:25	57.0	57.0	57.0	90	54.1	0	0	---	0.00	30.217 
00:30	57.0	57.0	57.0	90	54.1	0	0	---	0.00	30.217 
00:35	57.0	57.0	57.0	90	54.1	0	0	---	0.00	30.217 
00:40	56.9	56.9	56.9	90	54.0	0	0	---	0.00	30.217 
00:45	56.9	56.9	56.9	90	54.0	0	0	---	0.00	30.215 
00:50	56.7	56.7	56.7	90	53.8	0	0	---	0.00	30.215 
00:55	56.6	56.6	56.6	90	53.7	0	0	---	0.00	30.215 
01:00	56.5	56.5	56.5	89	53.3	0	0	---	0.00	30.211 
01:05	56.3	56.3	56.3	89	53.1	0	0	---	0.00	30.211 
01:10	56.0	56.0	56.0	87	52.2	0	0	---	0.00	30.211 
01:15	55.9	55.9	55.9	86	51.8	0	0	---	0.00	30.215 
01:20	55.7	55.7	55.7	83	50.6	0	0	---	0.00	30.215 
01:25	55.7	55.7	55.7	82	50.3	0	0	---	0.00	30.215 
01:30	55.6	55.6	55.6	81	49.9	0	0	---	0.00	30.215 
01:35	55.7	55.7	55.7	79	49.3	0	0	---	0.00	30.215 
01:40	55.7	55.7	55.7	78	48.9	0	0	---	0.00	30.215 
01:45	55.7	55.7	55.7	77	48.6	0	0	---	0.00	30.213 
01:50	55.7	55.7	55.7	76	48.3	0	0	---	0.00	30.213 
01:55	55.9	55.9	55.9	75	48.1	0	1	315	0.00	30.213 
02:00	55.9	55.9	55.9	74	47.7	0	1	---	0.00	30.213 
02:05	55.9	55.9	55.9	74	47.7	0	1	315	0.00	30.213 
02:10	56.0	56.0	56.0	73	47.5	0	1	315	0.00	30.213 
02:15	56.0	56.0	56.0	72	47.1	0	1	315	0.00	30.211 
02:20	56.2	56.2	56.2	72	47.3	0	1	315	0.00	30.211 
02:25	56.2	56.2	56.2	73	47.7	0	0	---	0.00	30.211 
02:30	56.0	56.0	56.0	73	47.5	0	0	---	0.00	30.209 
02:35	56.0	56.0	56.0	73	47.5	0	0	---	0.00	30.209 
02:40	55.9	55.9	55.9	73	47.4	0	1	315	0.00	30.209 
02:45	55.9	55.9	55.9	73	47.4	0	1	315	0.00	30.207 
02:50	55.9	55.9	55.9	74	47.7	0	1	315	0.00	30.207 
02:55	55.9	55.9	55.9	74	47.7	0	0	---	0.00	30.207 
03:00	55.7	55.7	55.7	75	47.9	0	0	---	0.00	30.206 
03:05	55.7	55.7	55.7	75	47.9	0	1	315	0.00	30.206 
03:10	55.7	55.7	55.7	75	47.9	0	0	---	0.00	30.206 
03:15	55.7	55.7	55.7	76	48.3	0	1	315	0.00	30.198 
03:20	55.6	55.6	55.6	76	48.2	0	2	90	0.00	30.198 
03:25	55.6	55.6	55.6	76	48.2	0	1	112	0.00	30.198 
03:30	55.6	55.6	55.6	76	48.2	0	2	112	0.00	30.205 
03:35	55.7	55.7	55.7	76	48.3	0	3	112	0.00	30.205 
03:40	55.7	55.7	55.7	77	48.6	0	3	112	0.00	30.205 
03:45	55.6	55.6	55.6	77	48.5	0	1	112	0.00	30.204 
03:50	55.6	55.6	55.6	77	48.5	0	3	112	0.00	30.204 
03:55	55.6	55.6	55.6	77	48.5	0	1	112	0.00	30.204 
04:00	55.4	55.4	55.4	78	48.7	1	3	112	0.00	30.204 
04:05	55.4	55.4	55.4	77	48.3	1	4	112	0.00	30.204 
04:10	55.6	55.6	55.6	78	48.8	1	3	112	0.00	30.204 
04:15	55.4	55.4	55.4	79	49.0	0	2	112	0.00	30.206 
04:20	55.4	55.4	55.4	79	49.0	1	4	112	0.00	30.206 
04:25	55.4	55.4	55.4	80	49.3	1	2	112	0.00	30.206 
04:30	55.3	55.3	55.3	80	49.2	1	3	112	0.00	30.205 
04:35	55.3	55.3	55.3	81	49.6	1	3	112	0.00	30.205 
04:40	55.3	55.3	55.3	81	49.6	1	4	90	0.00	30.205 
04:45	55.3	55.3	55.3	81	49.6	1	3	112	0.00	30.207 
04:50	55.3	55.3	55.3	82	49.9	1	5	112	0.00	30.207 
04:55	55.1	55.1	55.1	82	49.7	1	3	112	0.00	30.207 
05:00	55.1	55.1	55.1	82	49.7	1	3	90	0.00	30.205 
05:05	55.0	55.0	55.0	82	49.6	1	5	90	0.00	30.205 
05:10	55.0	55.0	55.0	83	49.9	1	3	112	0.00	30.205 
05:15	54.8	54.8	54.8	83	49.7	1	3	112	0.00	30.204 
05:20	54.8	54.8	54.8	83	49.7	1	4	112	0.00	30.204 
05:25	54.8	54.8	54.8	84	50.1	0	1	112	0.00	30.204 
05:30	54.8	54.8	54.8	84	50.1	0	3	112	0.00	30.205 
05:35	54.8	54.8	54.8	84	50.1	0	1	112	0.00	30.205 
05:40	54.7	54.7	54.7	84	50.0	0	1	112	0.00	30.205 
05:45	54.7	54.7	54.7	84	50.0	0	1	112	0.00	30.205 
05:50	54.7	54.7	54.7	84	50.0	0	1	112	0.00	30.205 
05:55	54.7	54.7	54.7	84	50.0	0	3	112	0.00	30.205 
06:00	54.7	54.7	54.7	84	50.0	0	2	112	0.00	30.208 
06:05	54.7	54.7	54.7	84	50.0	0	1	112	0.00	30.208 
06:10	54.7	54.7	54.7	84	50.0	0	1	112	0.00	30.208 
06:15	54.7	54.7	54.7	84	50.0	0	3	112	0.00	30.210 
06:20	54.7	54.7	54.7	85	50.3	0	1	112	0.00	30.210 
06:25	54.5	54.5	54.5	85	50.1	0	1	112	0.00	30.210 
06:30	54.5	54.5	54.5	85	50.1	0	2	112	0.00	30.206 
06:35	54.4	54.4	54.4	85	50.0	0	0	---	0.00	30.206 
06:40	54.4	54.4	54.4	85	50.0	0	1	112	0.00	30.206 
06:45	54.2	54.2	54.2	85	49.8	0	0	---	0.00	30.210 
06:50	54.2	54.2	54.2	86	50.1	0	0	---	0.00	30.210 
06:55	54.1	54.1	54.1	86	50.0	0	0	---	0.00	30.210 
07:00	54.1	54.1	54.1	86	50.0	0	0	---	0.00	30.211 
07:05	54.1	54.1	54.1	86	50.0	0	1	112	0.00	30.211 
07:10	54.1	54.1	54.1	85	49.7	1	3	112	0.00	30.211 
07:15	54.1	54.1	54.1	85	49.7	1	3	112	0.00	30.218 
07:20	54.1	54.1	54.1	84	49.4	1	4	112	0.00	30.218 
07:25	54.2	54.2	54.2	83	49.1	1	3	112	0.00	30.218 
07:30	54.4	54.4	54.4	81	48.7	2	5	112	0.00	30.223 
07:35	54.5	54.5	54.5	81	48.8	1	4	112	0.00	30.223 
07:40	54.8	54.8	54.8	80	48.7	2	9	112	0.00	30.223 
07:45	55.0	55.0	55.0	80	48.9	2	5	112	0.00	30.225 
07:50	55.3	55.3	55.3	79	48.9	2	6	90	0.00	30.225 
07:55	55.4	55.4	55.4	79	49.0	2	6	112	0.00	30.225 
08:00	55.4	55.4	55.4	79	49.0	2	4	112	0.00	30.226 
08:05	55.6	55.6	55.6	79	49.2	2	5	112	0.00	30.226 
08:10	55.4	55.4	55.4	79	49.0	2	6	90	0.00	30.226 
08:15	55.4	55.4	55.4	80	49.3	3	7	90	0.00	30.234 
08:20	55.6	55.6	55.6	81	49.9	2	7	112	0.00	30.234 
08:25	55.7	55.7	55.7	81	50.0	2	9	112	0.00	30.234 
08:30	56.0	56.0	56.0	80	49.9	3	9	90	0.00	30.231 
08:35	56.0	56.0	56.0	81	50.3	3	7	112	0.00	30.231 
08:40	56.2	56.2	56.2	81	50.4	2	6	112	0.00	30.231 
08:45	56.3	56.3	56.3	80	50.2	3	6	112	0.00	30.232 
08:50	56.6	56.6	56.6	80	50.5	2	7	112	0.00	30.232 
08:55	56.9	56.9	56.9	80	50.8	2	5	90	0.00	30.232 
09:00	56.9	56.9	56.9	80	50.8	2	6	112	0.00	30.234 
09:05	56.7	56.7	56.7	80	50.6	3	7	112	0.00	30.234 
09:10	56.7	56.7	56.7	78	49.9	4	10	112	0.00	30.234 
09:15	57.0	57.0	57.0	78	50.2	3	9	90	0.00	30.231 
09:20	57.3	57.3	57.3	78	50.5	3	11	112	0.00	30.231 
09:25	57.8	57.8	57.8	77	50.6	2	5	135	0.00	30.231 
09:30	58.0	58.0	58.0	76	50.5	4	10	112	0.00	30.228 
09:35	58.1	58.1	58.1	77	50.9	3	6	90	0.00	30.228 
09:40	58.1	58.1	58.1	75	50.2	3	7	112	0.00	30.228 
09:45	58.4	58.4	58.4	75	50.5	3	11	112	0.00	30.228 
09:50	58.7	58.7	58.7	74	50.4	4	9	90	0.00	30.228 
09:55	59.2	59.2	59.2	74	50.9	2	5	90	0.00	30.228 
10:00	59.6	59.6	59.6	71	50.2	3	5	90	0.00	30.223 
10:05	59.5	59.5	59.5	70	49.7	5	11	112	0.00	30.223 
10:10	59.3	59.3	59.3	71	49.9	5	13	112	0.00	30.223 
10:15	59.6	59.6	59.6	73	50.9	2	7	112	0.00	30.224 
10:20	60.2	60.2	60.2	70	50.4	2	7	112	0.00	30.224 
10:25	60.4	60.4	60.4	68	49.8	4	12	112	0.00	30.224 
10:30	60.5	60.5	60.5	67	49.5	4	9	90	0.00	30.222 
10:35	60.7	60.7	60.7	67	49.7	3	7	90	0.00	30.222 
10:40	60.7	60.7	60.7	67	49.7	4	11	90	0.00	30.222 
10:45	60.7	60.7	60.7	67	49.7	4	10	90	0.00	30.221 
10:50	60.9	60.9	60.9	66	49.5	3	12	90	0.00	30.221 
10:55	61.0	61.0	61.0	64	48.7	4	11	112	0.00	30.221 
11:00	61.2	61.2	61.2	65	49.3	4	9	112	0.00	30.212 
11:05	61.6	61.6	61.6	65	49.7	3	7	112	0.00	30.212 
11:10	61.8	61.8	61.8	65	49.9	3	9	112	0.00	30.212 
11:15	62.4	62.4	62.4	65	50.5	2	7	112	0.00	30.217 
11:20	62.7	62.7	62.7	65	50.8	3	11	112	0.00	30.217 
11:25	63.2	63.2	63.2	63	50.4	3	6	112	0.00	30.217 
11:30	62.9	62.9	62.9	63	50.1	4	10	112	0.00	30.212 
11:35	63.1	63.1	63.1	63	50.3	3	7	112	0.00	30.212 
11:40	63.1	63.1	63.1	63	50.3	3	8	90	0.00	30.212 
11:45	62.9	62.9	62.9	61	49.2	4	10	112	0.00	30.217 
11:50	62.7	62.7	62.7	61	49.1	5	10	112	0.00	30.217 
11:55	63.1	63.1	63.1	60	49.0	3	10	112	0.00	30.217 
12:00	63.1	63.1	63.1	58	48.1	5	11	90	0.00	30.216 
12:05	63.4	63.4	63.4	58	48.4	4	9	112	0.00	30.216 
12:10	63.9	63.9	63.9	59	49.3	3	9	90	0.00	30.216 
12:15	64.2	64.2	64.2	57	48.6	4	11	112	0.00	30.212 
12:20	64.3	64.3	64.3	58	49.2	4	10	112	0.00	30.212 
12:25	64.0	64.0	64.0	57	48.5	5	11	90	0.00	30.212 
12:30	64.0	64.0	64.0	54	47.0	5	11	112	0.00	30.210 
12:35	63.9	63.9	63.9	55	47.4	4	10	112	0.00	30.210 
12:40	64.2	64.2	64.2	56	48.2	4	9	90	0.00	30.210 
12:45	64.2	64.2	64.2	58	49.1	4	11	112	0.00	30.210 
12:50	64.2	64.2	64.2	55	47.7	4	10	90	0.00	30.210 
12:55	64.0	64.0	64.0	55	47.5	4	11	112	0.00	30.210 
13:00	64.3	64.3	64.3	56	48.3	3	7	112	0.00	30.208 
13:05	64.3	64.3	64.3	57	48.7	4	10	112	0.00	30.208 
13:10	64.5	64.5	64.5	55	48.0	3	7	112	0.00	30.208 
13:15	64.5	64.5	64.5	54	47.5	5	10	90	0.00	30.206 
13:20	64.2	64.2	64.2	54	47.2	4	11	90	0.00	30.206 
13:25	64.0	64.0	64.0	54	47.0	4	10	90	0.00	30.206 
13:30	63.9	63.9	63.9	55	47.4	4	12	112	0.00	30.200 
13:35	64.0	64.0	64.0	54	47.0	3	8	90	0.00	30.200 
13:40	63.9	63.9	63.9	52	45.9	4	12	112	0.00	30.200 
13:45	63.7	63.7	63.7	56	47.7	4	10	90	0.00	30.193 
13:50	64.0	64.0	64.0	55	47.5	4	10	90	0.00	30.193 
13:55	64.3	64.3	64.3	54	47.3	3	7	90	0.00	30.193 
14:00	64.7	64.7	64.7	54	47.7	3	8	112	0.00	30.190 
14:05	64.5	64.5	64.5	54	47.5	4	10	112	0.00	30.190 
14:10	64.3	64.3	64.3	56	48.3	5	12	112	0.00	30.190 
14:15	64.7	64.7	64.7	57	49.1	3	10	112	0.00	30.181 
14:20	64.7	64.7	64.7	52	46.7	5	10	112	0.00	30.181 
14:25	64.5	64.5	64.5	54	47.5	4	8	90	0.00	30.181 
14:30	64.7	64.7	64.7	54	47.7	4	11	90	0.00	30.182 
14:35	64.5	64.5	64.5	57	48.9	3	11	135	0.00	30.182 
14:40	64.5	64.5	64.5	54	47.5	3	9	90	0.00	30.182 
14:45	64.2	64.2	64.2	53	46.7	4	8	90	0.00	30.180 
14:50	64.3	64.3	64.3	53	46.8	3	13	90	0.00	30.180 
14:55	64.8	64.8	64.8	55	48.2	2	5	90	0.00	30.180 
15:00	64.7	64.7	64.7	52	46.7	4	8	90	0.00	30.181 
15:05	64.3	64.3	64.3	55	47.8	3	9	112	0.00	30.181 
15:10	64.5	64.5	64.5	52	46.5	4	11	112	0.00	30.181 
15:15	64.2	64.2	64.2	54	47.2	3	10	112	0.00	30.180 
15:20	64.2	64.2	64.2	51	45.7	3	11	90	0.00	30.180 
15:25	64.3	64.3	64.3	52	46.3	3	10	112	0.00	30.180 
15:30	64.5	64.5	64.5	54	47.5	4	7	90	0.00	30.175 
15:35	64.5	64.5	64.5	52	46.5	3	9	112	0.00	30.175 
15:40	64.2	64.2	64.2	52	46.2	4	9	112	0.00	30.175 
15:45	63.9	63.9	63.9	52	45.9	5	14	112	0.00	30.171 
15:50	63.7	63.7	63.7	56	47.7	4	13	112	0.00	30.171 
15:55	63.5	63.5	63.5	54	46.6	2	7	112	0.00	30.171 
16:00	63.4	63.4	63.4	53	46.0	4	10	112	0.00	30.166 
16:05	63.4	63.4	63.4	55	46.9	3	6	90	0.00	30.166 
16:10	63.4	63.4	63.4	56	47.4	3	9	90	0.00	30.166 
16:15	63.2	63.2	63.2	53	45.8	3	10	90	0.00	30.165 
16:20	62.9	62.9	62.9	53	45.5	2	6	112	0.00	30.165 
16:25	62.7	62.7	62.7	53	45.3	4	11	90	0.00	30.165 
16:30	62.7	62.7	62.7	53	45.3	3	7	112	0.00	30.163 
16:35	62.6	62.6	62.6	54	45.7	2	7	112	0.00	30.163 
16:40	62.4	62.4	62.4	52	44.5	3	10	112	0.00	30.163 
16:45	62.4	62.4	62.4	50	43.5	3	9	112	0.00	30.162 
16:50	62.3	62.3	62.3	50	43.4	4	7	112	0.00	30.162 
16:55	62.1	62.1	62.1	51	43.8	3	9	112	0.00	30.162 
17:00	62.0	62.0	62.0	50	43.1	3	7	112	0.00	30.164 
17:05	62.0	62.0	62.0	51	43.7	2	10	90	0.00	30.164 
17:10	62.1	62.1	62.1	52	44.3	2	5	112	0.00	30.164 
17:15	62.0	62.0	62.0	50	43.1	2	9	112	0.00	30.157 
17:20	62.0	62.0	62.0	51	43.7	3	7	90	0.00	30.157 
17:25	61.8	61.8	61.8	51	43.5	3	9	90	0.00	30.157 
17:30	61.6	61.6	61.6	50	42.8	3	11	135	0.00	30.155 
17:35	61.3	61.3	61.3	51	43.0	4	10	112	0.00	30.155 
17:40	61.2	61.2	61.2	51	42.9	4	12	112	0.00	30.155 
17:45	61.2	61.2	61.2	51	42.9	4	11	112	0.00	30.151 
17:50	61.0	61.0	61.0	50	42.2	4	11	90	0.00	30.151 
17:55	60.9	60.9	60.9	50	42.1	4	10	112	0.00	30.151 
18:00	60.9	60.9	60.9	51	42.6	3	8	112	0.00	30.150 
18:05	60.7	60.7	60.7	49	41.4	4	9	90	0.00	30.150 
18:10	60.5	60.5	60.5	50	41.8	4	11	112	0.00	30.150 
18:15	60.4	60.4	60.4	50	41.7	4	8	112	0.00	30.151 
18:20	60.4	60.4	60.4	50	41.7	3	8	112	0.00	30.151 
18:25	60.4	60.4	60.4	49	41.1	3	9	90	0.00	30.151 
18:30	60.4	60.4	60.4	50	41.7	2	6	68	0.00	30.151 
18:35	60.4	60.4	60.4	51	42.2	3	7	112	0.00	30.151 
18:40	60.4	60.4	60.4	52	42.7	2	7	112	0.00	30.151 
18:45	60.1	60.1	60.1	50	41.4	4	11	90	0.00	30.150 
18:50	59.9	59.9	59.9	50	41.2	4	10	90	0.00	30.150 
18:55	59.8	59.8	59.8	50	41.1	3	7	90	0.00	30.150 
19:00	59.8	59.8	59.8	50	41.1	3	6	112	0.00	30.146 
19:05	59.6	59.6	59.6	51	41.4	4	11	90	0.00	30.146 
19:10	59.5	59.5	59.5	51	41.4	4	8	90	0.00	30.146 
19:15	59.5	59.5	59.5	52	41.9	4	10	90	0.00	30.148 
19:20	59.3	59.3	59.3	53	42.2	2	6	112	0.00	30.148 
19:25	59.3	59.3	59.3	52	41.7	3	9	112	0.00	30.148 
19:30	59.2	59.2	59.2	51	41.1	5	11	90	0.00	30.149 
19:35	59.2	59.2	59.2	52	41.6	3	9	90	0.00	30.149 
19:40	59.0	59.0	59.0	51	40.9	4	10	90	0.00	30.149 
19:45	59.0	59.0	59.0	52	41.4	3	11	90	0.00	30.143 
19:50	58.9	58.9	58.9	52	41.3	4	9	90	0.00	30.143 
19:55	58.9	58.9	58.9	53	41.8	3	8	112	0.00	30.143 
20:00	58.7	58.7	58.7	52	41.1	3	5	90	0.00	30.142 
20:05	58.7	58.7	58.7	53	41.6	3	10	90	0.00	30.142 
20:10	58.7	58.7	58.7	51	40.6	3	12	90	0.00	30.142 
20:15	58.7	58.7	58.7	52	41.1	3	10	90	0.00	30.140 
20:20	58.6	58.6	58.6	53	41.5	3	7	112	0.00	30.140 
20:25	58.4	58.4	58.4	54	41.8	1	4	68	0.00	30.140 
20:30	58.4	58.4	58.4	56	42.8	1	3	90	0.00	30.143 
20:35	58.3	58.3	58.3	56	42.7	1	3	90	0.00	30.143 
20:40	58.1	58.1	58.1	56	42.5	2	5	112	0.00	30.143 
20:45	58.0	58.0	58.0	55	41.9	2	6	112	0.00	30.142 
20:50	57.8	57.8	57.8	56	42.2	1	3	112	0.00	30.142 
20:55	57.6	57.6	57.6	54	41.1	2	7	68	0.00	30.142 
21:00	57.5	57.5	57.5	55	41.5	2	5	112	0.00	30.137 
21:05	57.3	57.3	57.3	54	40.8	2	7	112	0.00	30.137 
21:10	57.2	57.2	57.2	55	41.2	2	4	112	0.00	30.137 
21:15	57.2	57.2	57.2	56	41.6	2	5	112	0.00	30.135 
21:20	56.9	56.9	56.9	56	41.4	1	4	112	0.00	30.135 
21:25	56.7	56.7	56.7	57	41.6	0	2	112	0.00	30.135 
21:30	56.6	56.6	56.6	58	42.0	0	2	112	0.00	30.133 
21:35	56.3	56.3	56.3	58	41.7	0	2	112	0.00	30.133 
21:40	56.0	56.0	56.0	60	42.3	0	1	112	0.00	30.133 
21:45	55.9	55.9	55.9	60	42.2	0	1	112	0.00	30.128 
21:50	55.6	55.6	55.6	60	41.9	0	1	112	0.00	30.128 
21:55	55.3	55.3	55.3	61	42.1	0	3	112	0.00	30.128 
22:00	55.1	55.1	55.1	61	41.9	0	2	112	0.00	30.129 
22:05	55.0	55.0	55.0	62	42.2	0	1	112	0.00	30.129 
22:10	54.8	54.8	54.8	62	42.0	0	1	112	0.00	30.129 
22:15	54.8	54.8	54.8	62	42.0	0	3	112	0.00	30.128 
22:20	54.8	54.8	54.8	62	42.0	0	1	112	0.00	30.128 
22:25	54.7	54.7	54.7	62	41.9	0	2	112	0.00	30.128 
22:30	54.7	54.7	54.7	62	41.9	0	1	112	0.00	30.120 
22:35	54.5	54.5	54.5	62	41.7	0	1	112	0.00	30.120 
22:40	54.4	54.4	54.4	62	41.7	0	1	112	0.00	30.120 
22:45	54.4	54.4	54.4	63	42.1	0	1	112	0.00	30.121 
22:50	54.4	54.4	54.4	63	42.1	1	3	112	0.00	30.121 
22:55	54.4	54.4	54.4	63	42.1	0	3	112	0.00	30.121 
23:00	54.5	54.5	54.5	62	41.7	1	3	112	0.00	30.121 
23:05	54.5	54.5	54.5	63	42.2	0	3	112	0.00	30.121 
23:10	54.4	54.4	54.4	63	42.1	1	4	112	0.00	30.121 
23:15	54.5	54.5	54.5	62	41.7	1	4	112	0.00	30.115 
23:20	54.4	54.4	54.4	63	42.1	1	5	112	0.00	30.115 
23:25	54.4	54.4	54.4	64	42.5	0	3	112	0.00	30.115 
23:30	54.2	54.2	54.2	64	42.3	1	3	112	0.00	30.110 
23:35	54.2	54.2	54.2	64	42.3	1	5	112	0.00	30.110 
23:40	54.2	54.2	54.2	64	42.3	1	4	112	0.00	30.110 
23:45	54.1	54.1	54.1	65	42.6	0	3	68	0.00	30.103 
23:50	54.1	54.1	54.1	65	42.6	1	3	90	0.00	30.103 
23:55	53.9	53.9	53.9	65	42.4	1	6	90	0.00	30.103 

CoCoRaHS
IN-AL-39
A2 Web Hosting
Creative Commons License
GoDaddy
search engine by freefind advanced

loaded 2018-11-19 19:50:15 • last modified 2010-11-18 10:43:29
Privacy PolicyDisclaimer
• wx.awcolley.com is powered by PmWiki v.2002016 •
• all content (unless otherwise noted) © 2018 A W Colley